createdAt,value
2023-03-29T00:04:41.891Z,80.7002
2023-03-29T00:09:44.502Z,81.58008
2023-03-29T00:14:42.634Z,82.06934
2023-03-29T00:19:43.315Z,81.53418
2023-03-29T00:24:41.563Z,80.46289
2023-03-29T00:29:41.902Z,81.38086
2023-03-29T00:34:42.789Z,81.32813
2023-03-29T00:39:46.177Z,81.15527
2023-03-29T00:44:54.231Z,80.94531
2023-03-29T00:49:44.981Z,81.19727
2023-03-29T00:54:44.360Z,81.52344
2023-03-29T00:59:56.488Z,81.50195
2023-03-29T01:04:47.582Z,81.33008
2023-03-29T01:09:44.114Z,81.31934
2023-03-29T01:14:45.914Z,81.48438
2023-03-29T01:19:44.474Z,81.76172
2023-03-29T01:24:47.230Z,81.75098
2023-03-29T01:29:50.120Z,81.4209
2023-03-29T01:34:45.259Z,81.35352
2023-03-29T01:39:48.381Z,81.39941
2023-03-29T01:44:52.178Z,81.39746
2023-03-29T01:49:45.631Z,81.26758
2023-03-29T01:54:45.351Z,81.61914
2023-03-29T01:59:44.616Z,81.18262
2023-03-29T02:04:48.101Z,81.17285
2023-03-29T02:09:44.370Z,81.22949
2023-03-29T02:14:41.423Z,81.65918
2023-03-29T02:19:41.409Z,81.62988
2023-03-29T02:24:49.297Z,81.5459
2023-03-29T02:29:46.863Z,81.50391
2023-03-29T02:34:44.304Z,81.55078
2023-03-29T02:39:42.980Z,81.58691
2023-03-29T02:44:43.792Z,81.91113
2023-03-29T02:49:41.528Z,82.47168
2023-03-29T02:54:45.611Z,81.67578
2023-03-29T02:59:44.074Z,81.76855
2023-03-29T03:04:51.702Z,81.73926
2023-03-29T03:09:41.516Z,81.89746
2023-03-29T03:14:41.280Z,82.09766
2023-03-29T03:19:45.787Z,81.78027
2023-03-29T03:24:41.240Z,81.9043
2023-03-29T03:29:46.667Z,81.69824
2023-03-29T03:34:41.530Z,81.73438
2023-03-29T03:39:43.981Z,81.97656
2023-03-29T03:44:45.293Z,81.82715
2023-03-29T03:49:45.776Z,82.0166
2023-03-29T03:54:41.570Z,81.74609
2023-03-29T03:59:49.996Z,82.48438
2023-03-29T04:04:41.590Z,82.67578
2023-03-29T04:09:43.824Z,82.49121
2023-03-29T04:14:43.114Z,82.63477
2023-03-29T04:19:42.889Z,83.57422
2023-03-29T04:24:41.554Z,82.88281
2023-03-29T04:29:45.327Z,82.70801
2023-03-29T04:34:45.642Z,82.63281
2023-03-29T04:39:45.062Z,82.61328
2023-03-29T04:44:43.579Z,82.62695
2023-03-29T04:49:44.079Z,82.58496
2023-03-29T04:54:45.012Z,82.58691
2023-03-29T04:59:43.742Z,82.6416
2023-03-29T05:04:42.661Z,82.51074
2023-03-29T05:09:41.648Z,82.5791
2023-03-29T05:14:41.384Z,82.45703
2023-03-29T05:19:41.325Z,82.68848
2023-03-29T05:24:42.123Z,82.45898
2023-03-29T05:29:41.219Z,82.53711
2023-03-29T05:34:41.199Z,82.35156
2023-03-29T05:39:50.382Z,82.65234
2023-03-29T05:44:41.684Z,82.67578
2023-03-29T05:49:42.910Z,82.31836
2023-03-29T05:54:41.364Z,82.86133
2023-03-29T05:59:43.828Z,82.97754
2023-03-29T06:04:41.338Z,83.43555
2023-03-29T06:09:41.305Z,83.73242
2023-03-29T06:14:41.577Z,83.55664
2023-03-29T06:19:41.687Z,84.1709
2023-03-29T06:24:41.577Z,84.36914
2023-03-29T06:29:41.687Z,84.00293
2023-03-29T06:34:41.483Z,84.25391
2023-03-29T06:39:41.780Z,83.91602
2023-03-29T06:44:45.543Z,84.1748
2023-03-29T06:49:46.428Z,84.08984
2023-03-29T06:54:41.330Z,83.94922
2023-03-29T06:59:41.633Z,83.75488
2023-03-29T07:04:41.919Z,84.34082
2023-03-29T07:09:41.511Z,84.84375
2023-03-29T07:14:41.367Z,85.35547
2023-03-29T07:19:41.346Z,85.42578
2023-03-29T07:24:41.378Z,85.54492
2023-03-29T07:29:43.905Z,85.33203
2023-03-29T07:34:45.346Z,85.30762
2023-03-29T07:39:46.438Z,84.58105
2023-03-29T07:44:41.841Z,84.27148
2023-03-29T07:49:42.218Z,84.36523
2023-03-29T07:54:42.727Z,84.11816
2023-03-29T07:59:41.406Z,83.85352
2023-03-29T08:04:41.509Z,83.87109
2023-03-29T08:09:43.429Z,83.91699
2023-03-29T08:14:44.113Z,84.39844
2023-03-29T08:19:50.921Z,84.22754
2023-03-29T08:24:41.644Z,84.49121
2023-03-29T08:29:41.145Z,84.68262
2023-03-29T08:34:43.805Z,84.42578
2023-03-29T08:39:42.110Z,84.36816
2023-03-29T08:44:50.148Z,84.43848
2023-03-29T08:49:42.961Z,84.25684
2023-03-29T08:54:44.656Z,84.53809
2023-03-29T08:59:47.616Z,83.79297
2023-03-29T09:04:47.144Z,83.21777
2023-03-29T09:09:44.141Z,82.74023
2023-03-29T09:14:52.653Z,83.00977
2023-03-29T09:19:47.610Z,83.0791
2023-03-29T09:24:47.927Z,83.10938
2023-03-29T09:29:49.201Z,83.2832
2023-03-29T09:34:45.210Z,83.19727
2023-03-29T09:39:42.617Z,82.81934
2023-03-29T09:44:44.478Z,82.2793
2023-03-29T09:49:44.086Z,82.60547
2023-03-29T09:54:41.457Z,82.43555
2023-03-29T09:59:44.629Z,81.72168
2023-03-29T10:04:45.986Z,81.4834
2023-03-29T10:09:43.142Z,81.65039
2023-03-29T10:14:45.007Z,81.41504
2023-03-29T10:19:41.320Z,81.17285
2023-03-29T10:24:42.127Z,80.79102
2023-03-29T10:29:47.236Z,80.97559
2023-03-29T10:39:41.345Z,80.12109
2023-03-29T10:44:45.985Z,79.80469
2023-03-29T10:49:43.710Z,79.81738
2023-03-29T10:54:41.492Z,79.67676
2023-03-29T10:59:47.607Z,80.03809
2023-03-29T11:04:47.114Z,80.25586
2023-03-29T11:09:46.159Z,80.17773
2023-03-29T11:14:45.591Z,80.12207
2023-03-29T11:19:57.684Z,78.98535
2023-03-29T11:24:55.457Z,77.99316
2023-03-29T11:29:54.804Z,77.68652
2023-03-29T11:34:55.230Z,77.99414
2023-03-29T11:39:49.902Z,77.73535
2023-03-29T11:44:43.911Z,77.21875
2023-03-29T11:49:45.638Z,76.81055
2023-03-29T11:54:44.936Z,76.41406
2023-03-29T11:59:56.650Z,76.58398
2023-03-29T12:04:48.182Z,76.77441
2023-03-29T12:09:47.154Z,76.27441
2023-03-29T12:14:57.186Z,76.56152
2023-03-29T12:19:45.076Z,76.46289
2023-03-29T12:24:45.848Z,76.80566
2023-03-29T12:29:48.010Z,76.87402
2023-03-29T12:34:54.253Z,76.63281
2023-03-29T12:39:44.765Z,76.78516
2023-03-29T12:44:41.436Z,77.18359
2023-03-29T12:49:42.805Z,76.59668
2023-03-29T12:54:42.727Z,77.69434
2023-03-29T12:59:50.750Z,78.77734
2023-03-29T13:04:52.970Z,77.76367
2023-03-29T13:09:52.079Z,77.77051
2023-03-29T13:14:45.981Z,77.14746
2023-03-29T13:19:48.893Z,76.97461
2023-03-29T13:24:55.928Z,77.14063
2023-03-29T13:29:57.099Z,76.33887
2023-03-29T13:34:50.349Z,77.57129
2023-03-29T13:39:51.448Z,75.86133
2023-03-29T13:44:46.231Z,76.51172
2023-03-29T13:49:42.388Z,76.625
2023-03-29T13:54:45.661Z,76.08398
2023-03-29T13:59:47.442Z,76.02832
2023-03-29T14:04:54.375Z,77.49512
2023-03-29T14:09:45.210Z,76.34961
2023-03-29T14:14:58.241Z,76.65723
2023-03-29T14:19:42.499Z,76.37598
2023-03-29T14:24:44.824Z,76.37988
2023-03-29T14:29:41.839Z,77.3418
2023-03-29T14:34:41.892Z,76.77051
2023-03-29T14:39:44.978Z,76.82813
2023-03-29T14:44:50.383Z,77.16016
2023-03-29T14:49:46.942Z,79.60156
2023-03-29T14:54:42.571Z,78.13574
2023-03-29T14:59:48.130Z,78.14355
2023-03-29T15:04:49.302Z,79.13184
2023-03-29T15:09:49.166Z,79.23047
2023-03-29T15:14:49.784Z,80.11426
2023-03-29T15:19:45.844Z,79.54883
2023-03-29T15:24:45.895Z,79.67773
2023-03-29T15:29:45.470Z,80.25
2023-03-29T15:34:42.107Z,80.03027
2023-03-29T15:39:48.561Z,79.97266
2023-03-29T15:44:42.067Z,80.5459
2023-03-29T15:49:47.218Z,80.29102
2023-03-29T15:54:43.568Z,79.9707
2023-03-29T15:59:45.377Z,80.59277
2023-03-29T16:04:41.283Z,81.00195
2023-03-29T16:09:43.649Z,81.88672
2023-03-29T16:14:43.051Z,82.29785
2023-03-29T16:19:41.041Z,82.80664
2023-03-29T16:24:41.332Z,83
2023-03-29T16:29:41.095Z,83.03418
2023-03-29T16:34:47.581Z,83.3125
2023-03-29T16:39:41.838Z,83.66113
2023-03-29T16:44:41.102Z,83.59375
2023-03-29T16:49:43.032Z,83.93066
2023-03-29T16:54:42.628Z,84.20996
2023-03-29T16:59:42.470Z,84.16699
2023-03-29T17:04:41.021Z,84.35059
2023-03-29T17:09:41.654Z,84.59961
2023-03-29T17:14:41.916Z,84.5127
2023-03-29T17:19:41.279Z,84.81348
2023-03-29T17:24:46.686Z,85.10547
2023-03-29T17:29:55.202Z,85.19531
2023-03-29T17:35:01.077Z,85.57617
2023-03-29T17:39:43.336Z,85.125
2023-03-29T17:44:41.145Z,85.47168
2023-03-29T17:49:41.225Z,85.63086
2023-03-29T17:54:41.490Z,86.23926
2023-03-29T17:59:42.138Z,85.97559
2023-03-29T18:04:42.098Z,85.89648
2023-03-29T18:09:41.301Z,85.98242
2023-03-29T18:14:41.233Z,86.52539
2023-03-29T18:19:42.628Z,86.68457
2023-03-29T18:24:42.821Z,86.9707
2023-03-29T18:29:41.607Z,87.14258
2023-03-29T18:34:41.556Z,87.13965
2023-03-29T18:39:41.279Z,87.34863
2023-03-29T18:44:41.158Z,87.56934
2023-03-29T18:49:41.871Z,87.64746
2023-03-29T18:54:41.525Z,87.70313
2023-03-29T18:59:41.117Z,88.00195
2023-03-29T19:04:45.596Z,87.92383
2023-03-29T19:09:43.134Z,88.2373
2023-03-29T19:14:41.331Z,88.29492
2023-03-29T19:19:41.311Z,88.52734
2023-03-29T19:24:41.260Z,88.92871
2023-03-29T19:29:41.418Z,88.56543
2023-03-29T19:34:41.598Z,88.67773
2023-03-29T19:39:54.552Z,89.02832
2023-03-29T19:44:41.287Z,88.91016
2023-03-29T19:49:41.897Z,89.33887
2023-03-29T19:54:43.017Z,89.05371
2023-03-29T19:59:43.039Z,89.52832
2023-03-29T20:04:41.641Z,89.12891
2023-03-29T20:09:43.297Z,89.35156
2023-03-29T20:14:43.154Z,89.4541
2023-03-29T20:19:44.027Z,89.33691
2023-03-29T20:24:42.506Z,89.25
2023-03-29T20:29:41.798Z,89.2627
2023-03-29T20:34:41.176Z,89.54395
2023-03-29T20:39:41.018Z,89.32129
2023-03-29T20:44:41.138Z,89.41895
2023-03-29T20:49:44.920Z,89.34961
2023-03-29T20:54:41.050Z,89.28125
2023-03-29T20:59:41.879Z,88.84375
2023-03-29T21:04:48.456Z,89.02344
2023-03-29T21:09:44.559Z,89.91895
2023-03-29T21:14:41.600Z,89.24609
2023-03-29T21:19:41.305Z,89.02539
2023-03-29T21:24:40.997Z,89.12305
2023-03-29T21:29:41.299Z,90.36035
2023-03-29T21:34:41.137Z,89.26855
2023-03-29T21:39:43.639Z,90.74902
2023-03-29T21:44:41.132Z,92.16211
2023-03-29T21:49:44.064Z,93.41504
2023-03-29T21:54:42.562Z,93.70215
2023-03-29T21:59:41.032Z,94.26367
2023-03-29T22:04:43.555Z,94.10352
2023-03-29T22:09:43.836Z,94.48242
2023-03-29T22:14:46.534Z,94.4834
2023-03-29T22:19:41.670Z,94.51465
2023-03-29T22:24:41.245Z,94.95117
2023-03-29T22:29:41.537Z,94.62891
2023-03-29T22:34:44.843Z,94.25488
2023-03-29T22:39:47.926Z,94.30078
2023-03-29T22:44:41.518Z,93.7373
2023-03-29T22:49:41.138Z,94.30176
2023-03-29T22:54:48.299Z,94.77832
2023-03-29T22:59:41.322Z,94.45313
2023-03-29T23:04:42.500Z,94.42773
2023-03-29T23:09:41.177Z,94.27246
2023-03-29T23:14:46.182Z,94.21875
2023-03-29T23:19:41.557Z,93.86621
2023-03-29T23:24:46.602Z,94.00781
2023-03-29T23:29:46.432Z,93.98828
2023-03-29T23:34:44.176Z,93.79688
2023-03-29T23:39:43.745Z,93.81445
2023-03-29T23:44:41.124Z,93.46094
2023-03-29T23:49:45.236Z,93.51953
2023-03-29T23:54:41.157Z,93.69141
2023-03-29T23:59:42.655Z,93.07031
